Terminal Aerodrome Forecast
Issued by NWS

Current Version | Previous Version | Graphics & Text | Print | Product List | Glossary Off
Versions: 1 2 3 4 5 6 7 8 9 10 11 12 13 14 15 16 17 18 19 20 21 22 23 24 25 26 27 28 29 30 31 32 33 34 35 36 37 38 39 40 41 42 43 44 45 46

000
FTUS42 KILM 251920 AAJ
TAFCRE
TAF AMD
KCRE 251920Z 2519/2618 19006KT P6SM BKN200
     FM260100 22006KT P6SM OVC050
     FM260300 22005KT P6SM VCSH BKN008
     FM260600 VRB03KT 3SM BR BKN004
     FM261600 22004KT P6SM BKN016=

USA.gov is the U.S. government's official web portal to all federal, state and local government web resources and services.